Time;durP1;ratioP1;P1;durP2;ratioP2;P2;SDS_P1;SDS_P2;PMS_P1;PMS_P2;Temp;Humidity;BMP_temperature;BMP_pressure;BME280_temperature;BME280_humidity;BME280_pressure;Samples;Min_cycle;Max_cycle;Signal;HPM_P1;HPM_P2
2022/01/28 00:00:37;;;;;;;24.63;17.00;;;;;;;2.18;96.70;98023.81;5097875;28;20283;-69
2022/01/28 00:03:08;;;;;;;26.83;17.93;;;;;;;2.14;96.60;98022.25;5098582;28;20247;-69
2022/01/28 00:05:36;;;;;;;25.20;18.27;;;;;;;2.19;95.87;98030.75;5099877;28;20562;-69
2022/01/28 00:08:03;;;;;;;26.63;19.07;;;;;;;2.27;95.45;98039.13;5091796;28;20239;-70
2022/01/28 00:10:30;;;;;;;28.73;20.40;;;;;;;2.28;95.10;98044.28;5098678;28;20210;-69
2022/01/28 00:13:19;;;;;;;29.87;21.17;;;;;;;2.26;94.44;98040.06;5108925;28;20239;-70
2022/01/28 00:15:59;;;;;;;30.67;20.60;;;;;;;2.28;94.48;98043.44;5116482;28;20267;-71
2022/01/28 00:18:55;;;;;;;30.93;20.53;;;;;;;2.31;94.45;98058.97;5112664;28;20246;-69
2022/01/28 00:38:04;;;;;;;33.63;22.73;;;;;;;2.58;92.08;98044.88;5097501;28;20343;-74
2022/01/28 00:40:32;;;;;;;30.70;20.87;;;;;;;2.61;92.19;98050.00;5097290;28;20670;-73
2022/01/28 00:42:59;;;;;;;29.87;21.37;;;;;;;2.66;91.52;98042.81;5097211;28;20216;-69
2022/01/28 00:45:26;;;;;;;31.57;21.00;;;;;;;2.69;90.81;98041.84;5097899;28;20212;-71
2022/01/28 00:47:53;;;;;;;32.67;21.97;;;;;;;2.71;90.81;98040.03;5078978;28;20201;-71
2022/01/28 00:50:20;;;;;;;29.93;22.13;;;;;;;2.67;91.09;98039.28;5077969;28;20541;-70
2022/01/28 00:52:47;;;;;;;31.97;21.90;;;;;;;2.73;91.13;98039.03;5084696;28;20242;-71
2022/01/28 00:55:13;;;;;;;31.00;22.33;;;;;;;2.71;90.95;98025.19;5104979;28;20662;-70
2022/01/28 00:57:40;;;;;;;27.67;20.43;;;;;;;2.73;91.06;98022.53;5090722;28;20214;-71
2022/01/28 01:00:09;;;;;;;29.03;20.23;;;;;;;2.78;90.85;98024.03;5083411;28;20229;-71
2022/01/28 01:02:35;;;;;;;31.27;21.07;;;;;;;2.88;90.17;98032.34;5083673;28;20204;-72
2022/01/28 01:05:02;;;;;;;31.77;21.67;;;;;;;2.87;89.68;98036.72;5091545;28;20205;-70
2022/01/28 01:07:30;;;;;;;28.00;19.90;;;;;;;2.87;89.99;98034.09;5113668;28;20265;-71
2022/01/28 01:09:57;;;;;;;26.20;19.47;;;;;;;2.77;90.54;98034.53;5114218;28;20204;-71
2022/01/28 01:12:25;;;;;;;29.70;20.50;;;;;;;2.91;90.55;98042.66;5111783;28;20222;-70
2022/01/28 01:14:52;;;;;;;26.77;19.87;;;;;;;2.85;90.17;98035.09;5112556;28;20205;-71
2022/01/28 01:17:28;;;;;;;27.67;19.07;;;;;;;2.85;90.91;98028.13;5114851;28;20192;-71
2022/01/28 01:20:08;;;;;;;26.47;19.03;;;;;;;2.89;90.48;98024.47;5108497;28;20206;-70
2022/01/28 01:22:39;;;;;;;28.53;20.40;;;;;;;2.97;90.15;98019.78;5114409;28;20189;-70
2022/01/28 01:25:15;;;;;;;27.43;18.73;;;;;;;2.94;89.92;98019.88;5110486;28;20229;-70
2022/01/28 01:27:42;;;;;;;28.13;19.50;;;;;;;2.82;90.31;98025.63;5112280;28;20185;-70
2022/01/28 01:30:10;;;;;;;24.90;18.10;;;;;;;2.87;90.54;98036.72;5114040;28;20208;-71
2022/01/28 01:32:36;;;;;;;26.20;17.80;;;;;;;2.76;91.73;98054.63;5113280;28;20220;-71
2022/01/28 01:35:03;;;;;;;26.13;17.63;;;;;;;2.84;91.21;98060.38;5112743;28;20208;-70
2022/01/28 01:37:29;;;;;;;26.80;18.07;;;;;;;2.72;91.84;98068.72;5111057;28;20212;-71
2022/01/28 01:39:57;;;;;;;24.23;17.13;;;;;;;2.67;91.81;98068.03;5112602;28;20240;-70
2022/01/28 01:42:31;;;;;;;24.53;17.03;;;;;;;2.62;92.55;98077.81;5110517;28;20220;-70
2022/01/28 01:45:44;;;;;;;20.60;15.30;;;;;;;2.59;93.00;98082.31;5092843;28;20199;-70
2022/01/28 01:53:32;;;;;;;22.73;16.53;;;;;;;2.79;92.31;98084.97;5115366;28;20195;-69
2022/01/28 01:56:00;;;;;;;19.30;14.70;;;;;;;2.81;91.95;98070.94;5114661;28;20209;-70
2022/01/28 01:58:31;;;;;;;22.57;15.83;;;;;;;2.70;92.36;98085.31;5114583;28;20203;-71
2022/01/28 02:00:58;;;;;;;21.80;15.73;;;;;;;2.66;92.87;98095.03;5103573;28;20247;-71
2022/01/28 02:03:24;;;;;;;23.50;17.20;;;;;;;2.56;93.92;98098.91;5097589;28;20208;-70
2022/01/28 02:05:51;;;;;;;24.13;17.30;;;;;;;2.50;94.58;98093.94;5079256;28;20208;-70
2022/01/28 02:08:17;;;;;;;23.10;16.90;;;;;;;2.54;94.36;98102.50;5093130;28;20220;-69
2022/01/28 02:10:44;;;;;;;26.57;18.40;;;;;;;2.49;94.92;98092.22;5110151;28;20204;-70
2022/01/28 02:13:12;;;;;;;22.40;17.13;;;;;;;2.37;95.30;98087.50;5109334;28;20243;-69
2022/01/28 02:15:38;;;;;;;27.77;19.90;;;;;;;2.38;95.54;98082.19;5097170;28;20209;-69
2022/01/28 02:18:05;;;;;;;26.03;18.73;;;;;;;2.45;95.96;98090.63;5101656;28;20216;-73
2022/01/28 02:20:35;;;;;;;26.80;18.17;;;;;;;2.45;95.96;98095.88;5089843;28;20225;-71
2022/01/28 02:23:02;;;;;;;25.83;18.40;;;;;;;2.40;95.67;98108.25;5095510;28;20215;-73
2022/01/28 02:25:31;;;;;;;27.53;19.60;;;;;;;2.37;95.67;98108.38;5095417;28;20624;-72
2022/01/28 02:28:01;;;;;;;25.07;19.10;;;;;;;2.38;95.78;98104.84;5095429;28;20220;-73
2022/01/28 02:30:28;;;;;;;24.60;18.17;;;;;;;2.38;96.06;98104.84;5095800;28;20209;-73
2022/01/28 02:33:00;;;;;;;29.90;20.17;;;;;;;2.35;96.59;98103.19;5094848;28;20573;-72
2022/01/28 02:35:27;;;;;;;28.47;20.47;;;;;;;2.38;95.92;98110.06;5095327;28;20237;-72
2022/01/28 02:37:55;;;;;;;28.60;20.70;;;;;;;2.33;96.38;98112.00;5095365;28;20208;-71
2022/01/28 02:40:23;;;;;;;30.30;20.77;;;;;;;2.26;96.81;98116.59;5095429;28;20224;-73
2022/01/28 02:42:57;;;;;;;29.57;20.20;;;;;;;2.33;96.58;98112.00;5095335;28;20226;-73
2022/01/28 02:45:32;;;;;;;28.77;20.70;;;;;;;2.33;96.63;98109.38;5095208;28;20206;-70
2022/01/28 02:48:01;;;;;;;31.67;20.80;;;;;;;2.29;96.80;98110.41;5087641;28;20199;-71
2022/01/28 02:50:32;;;;;;;32.03;21.57;;;;;;;2.26;96.79;98113.13;5077142;28;20255;-72
2022/01/28 02:53:06;;;;;;;28.97;20.60;;;;;;;2.24;96.73;98112.31;5079780;28;20527;-70
2022/01/28 02:55:37;;;;;;;29.70;20.17;;;;;;;2.22;96.76;98108.94;5097620;28;20239;-71
2022/01/28 02:58:16;;;;;;;29.13;19.43;;;;;;;2.15;97.06;98112.66;5098976;28;20213;-71
2022/01/28 03:00:43;;;;;;;27.43;19.90;;;;;;;2.21;96.94;98118.50;5098657;28;20211;-72
2022/01/28 03:03:10;;;;;;;24.23;18.47;;;;;;;2.16;97.02;98112.59;5099078;28;20205;-71
2022/01/28 03:05:36;;;;;;;27.63;19.20;;;;;;;2.07;96.61;98106.88;5098820;28;20217;-71
2022/01/28 03:08:05;;;;;;;24.17;16.67;;;;;;;2.16;96.29;98110.00;5085871;28;20220;-70
2022/01/28 03:10:42;;;;;;;23.70;16.73;;;;;;;2.11;96.41;98124.97;5078443;28;20525;-71
2022/01/28 03:13:29;;;;;;;20.83;15.17;;;;;;;2.03;96.33;98129.63;5097151;28;20226;-70
2022/01/28 03:16:07;;;;;;;23.13;16.17;;;;;;;2.07;96.47;98127.75;5094951;28;20223;-72
2022/01/28 03:18:43;;;;;;;24.03;17.00;;;;;;;2.06;96.36;98133.88;5098845;28;20283;-73
2022/01/28 03:21:20;;;;;;;20.83;14.70;;;;;;;2.13;96.50;98144.03;5098184;28;20732;-72
2022/01/28 03:23:49;;;;;;;22.47;15.37;;;;;;;2.17;96.45;98126.50;5098340;28;20209;-73
2022/01/28 03:26:16;;;;;;;26.40;17.17;;;;;;;2.18;96.46;98120.38;5110417;28;20295;-72
2022/01/28 03:28:43;;;;;;;22.23;14.77;;;;;;;2.26;95.57;98111.38;5098141;28;20681;-71
2022/01/28 03:31:09;;;;;;;20.33;13.30;;;;;;;2.33;93.92;98112.00;5098499;28;20212;-72
2022/01/28 03:33:36;;;;;;;17.37;12.10;;;;;;;2.25;94.36;98124.47;5099242;28;20216;-73
2022/01/28 03:36:04;;;;;;;15.57;12.23;;;;;;;2.30;94.32;98133.00;5098831;28;20222;-72
2022/01/28 03:38:31;;;;;;;16.07;12.00;;;;;;;2.28;94.82;98134.78;5109533;28;20208;-73
2022/01/28 03:40:58;;;;;;;12.73;10.00;;;;;;;2.22;94.24;98129.81;5116202;28;20225;-72
2022/01/28 03:43:25;;;;;;;14.83;10.83;;;;;;;2.18;94.72;98129.06;5119381;28;20203;-72
2022/01/28 03:45:51;;;;;;;14.20;10.47;;;;;;;2.21;94.67;98130.72;5120496;28;20202;-72
2022/01/28 03:48:18;;;;;;;12.90;10.00;;;;;;;2.12;94.75;98131.06;5111081;28;20216;-70
2022/01/28 03:50:44;;;;;;;13.07;10.07;;;;;;;2.06;94.81;98128.63;5102113;28;20623;-70
2022/01/28 03:53:11;;;;;;;14.70;10.77;;;;;;;2.04;95.60;98140.91;5101949;28;20660;-71
2022/01/28 03:55:37;;;;;;;14.57;10.50;;;;;;;1.99;95.46;98149.75;5102663;28;20208;-71
2022/01/28 03:58:05;;;;;;;13.43;9.97;;;;;;;2.07;95.36;98153.84;5103050;28;20208;-71
2022/01/28 04:00:32;;;;;;;12.63;9.67;;;;;;;2.06;95.38;98159.94;5106983;28;20233;-71
2022/01/28 04:03:07;;;;;;;14.43;10.03;;;;;;;2.07;95.88;98167.75;5110315;28;20236;-72
2022/01/28 04:14:06;;;;;;;13.07;10.20;;;;;;;2.21;95.72;98170.72;5039133;28;20759;-72
2022/01/28 04:17:18;;;;;;;13.73;9.80;;;;;;;2.20;95.71;98174.22;5103289;28;20204;-70
2022/01/28 04:19:20;;;;;;;13.87;9.90;;;;;;;2.16;95.44;98182.25;5088881;28;20519;-70
2022/01/28 04:21:46;;;;;;;13.17;9.93;;;;;;;2.11;95.85;98174.56;5086773;28;20244;-71
2022/01/28 04:24:13;;;;;;;13.57;10.27;;;;;;;2.05;96.81;98179.16;5098194;28;20209;-70
2022/01/28 04:26:39;;;;;;;14.43;10.80;;;;;;;1.98;96.85;98181.94;5091028;28;20240;-71
2022/01/28 04:29:08;;;;;;;12.77;10.27;;;;;;;2.07;96.99;98179.94;5076554;28;20222;-70
2022/01/28 04:31:34;;;;;;;12.67;9.37;;;;;;;2.10;97.00;98172.00;5076756;28;20205;-71
2022/01/28 04:34:01;;;;;;;11.77;10.07;;;;;;;2.14;96.76;98171.84;5077275;28;20213;-70
2022/01/28 04:36:32;;;;;;;13.00;9.27;;;;;;;2.19;96.54;98184.72;5076567;28;20232;-70
2022/01/28 04:39:06;;;;;;;13.20;9.90;;;;;;;2.25;96.34;98181.91;5076685;28;20211;-71
2022/01/28 04:41:39;;;;;;;13.43;10.00;;;;;;;2.31;96.23;98181.66;5090689;28;20244;-69
2022/01/28 04:44:14;;;;;;;13.37;10.23;;;;;;;2.23;95.42;98186.34;5096587;28;20211;-70
2022/01/28 04:46:46;;;;;;;13.77;9.80;;;;;;;2.21;95.55;98188.13;5095199;28;20227;-71
2022/01/28 04:49:18;;;;;;;13.60;9.60;;;;;;;2.25;95.72;98189.72;5096285;28;20305;-71
2022/01/28 04:51:56;;;;;;;12.77;9.20;;;;;;;2.29;95.93;98199.16;5096326;28;20205;-71
2022/01/28 04:54:43;;;;;;;11.63;9.37;;;;;;;2.28;94.71;98194.84;5099903;28;20211;-71
2022/01/28 04:57:19;;;;;;;12.17;9.10;;;;;;;2.32;95.30;98199.91;5099770;28;20197;-71
2022/01/28 05:00:00;;;;;;;14.17;11.00;;;;;;;2.30;95.22;98201.69;5096643;28;20223;-70
2022/01/28 05:05:43;;;;;;;12.47;9.63;;;;;;;2.37;95.00;98218.03;5084938;28;20221;-71
2022/01/28 05:08:36;;;;;;;12.87;9.17;;;;;;;2.34;95.53;98218.09;5089824;28;20309;-70
2022/01/28 05:14:11;;;;;;;12.00;9.83;;;;;;;2.41;94.43;98219.59;5094710;28;20671;-71
2022/01/28 05:17:02;;;;;;;14.23;10.33;;;;;;;2.45;94.56;98215.97;5096432;28;20220;-71
2022/01/28 05:27:41;;;;;;;13.93;10.83;;;;;;;2.50;94.02;98233.19;5088319;28;20527;-71
2022/01/28 05:30:08;;;;;;;14.83;11.13;;;;;;;2.48;93.49;98239.34;5095673;28;20209;-71
2022/01/28 05:32:36;;;;;;;13.77;10.73;;;;;;;2.49;94.11;98233.22;5095684;28;20612;-69
2022/01/28 05:35:03;;;;;;;15.23;10.57;;;;;;;2.54;93.53;98239.16;5095828;28;20202;-70
2022/01/28 05:37:30;;;;;;;14.43;10.37;;;;;;;2.48;94.55;98249.78;5095756;28;20202;-70
2022/01/28 05:39:56;;;;;;;13.47;10.60;;;;;;;2.53;94.23;98258.31;5096359;28;20224;-71
2022/01/28 05:42:22;;;;;;;13.50;10.60;;;;;;;2.53;94.10;98258.31;5094835;28;20208;-69
2022/01/28 05:44:49;;;;;;;14.97;11.53;;;;;;;2.47;93.68;98256.81;5075908;28;20213;-71
2022/01/28 05:47:16;;;;;;;14.17;10.83;;;;;;;2.42;95.14;98253.47;5075969;28;20218;-70
2022/01/28 05:49:45;;;;;;;14.33;11.63;;;;;;;2.42;94.42;98260.47;5075307;28;20564;-70
2022/01/28 05:52:11;;;;;;;15.97;11.87;;;;;;;2.34;94.86;98263.34;5075456;28;20230;-70
2022/01/28 05:54:38;;;;;;;16.13;11.60;;;;;;;2.36;95.05;98276.34;5086266;28;20200;-71
2022/01/28 05:57:05;;;;;;;14.23;11.27;;;;;;;2.24;96.26;98279.38;5097060;28;20210;-70
2022/01/28 05:59:32;;;;;;;14.40;10.77;;;;;;;2.30;95.92;98279.19;5097000;28;20205;-71
2022/01/28 06:01:58;;;;;;;15.10;10.83;;;;;;;2.33;95.83;98261.66;5093020;28;20249;-68
2022/01/28 06:04:25;;;;;;;15.20;11.57;;;;;;;2.30;96.58;98273.97;5095757;28;20218;-71
2022/01/28 06:06:53;;;;;;;14.53;11.20;;;;;;;2.28;96.45;98275.75;5092501;28;20639;-70
2022/01/28 06:09:19;;;;;;;14.37;10.37;;;;;;;2.33;96.18;98289.50;5075516;28;20665;-70
2022/01/28 06:11:47;;;;;;;13.73;10.43;;;;;;;2.31;96.45;98297.38;5082635;28;20544;-70
2022/01/28 06:14:13;;;;;;;12.33;10.20;;;;;;;2.38;96.20;98318.91;5095447;28;20215;-70
2022/01/28 06:16:40;;;;;;;13.83;10.40;;;;;;;2.38;95.98;98308.47;5095537;28;20226;-70
2022/01/28 06:19:06;;;;;;;14.10;11.03;;;;;;;2.35;95.70;98303.34;5095874;28;20209;-71
2022/01/28 06:21:32;;;;;;;14.30;10.57;;;;;;;2.37;95.66;98296.34;5095466;28;20232;-71
2022/01/28 06:24:00;;;;;;;13.27;9.93;;;;;;;2.36;95.58;98292.88;5098621;28;20233;-70
2022/01/28 06:26:27;;;;;;;14.60;10.60;;;;;;;2.14;96.16;98285.81;5101050;28;20220;-70
2022/01/28 06:28:53;;;;;;;14.23;10.37;;;;;;;2.13;96.38;98284.94;5100582;28;20208;-71
2022/01/28 06:31:20;;;;;;;19.70;9.80;;;;;;;2.08;96.94;98293.84;5099628;28;20242;-70
2022/01/28 06:33:46;;;;;;;12.57;9.90;;;;;;;2.08;96.38;98299.06;5100206;28;20620;-71
2022/01/28 06:36:13;;;;;;;15.03;10.73;;;;;;;2.07;96.68;98302.56;5098948;28;20653;-71
2022/01/28 06:38:39;;;;;;;13.50;10.10;;;;;;;2.10;97.04;98305.06;5106821;28;20213;-70
2022/01/28 06:41:07;;;;;;;13.07;10.00;;;;;;;2.08;96.40;98312.13;5121655;28;20300;-69
2022/01/28 06:43:34;;;;;;;12.53;9.87;;;;;;;2.00;96.50;98308.00;5121690;28;20184;-70
2022/01/28 06:46:01;;;;;;;13.73;10.20;;;;;;;2.02;96.68;98309.72;5122094;28;20186;-72
2022/01/28 06:48:27;;;;;;;12.47;10.03;;;;;;;2.04;96.37;98300.06;5121226;28;20189;-70
2022/01/28 06:50:54;;;;;;;12.00;9.80;;;;;;;2.05;96.03;98304.38;5101685;28;20237;-70
2022/01/28 06:53:20;;;;;;;11.30;9.73;;;;;;;2.05;95.82;98309.63;5100211;28;20207;-71
2022/01/28 06:55:47;;;;;;;13.67;10.70;;;;;;;1.99;95.98;98321.94;5105749;28;20205;-71
2022/01/28 06:58:15;;;;;;;11.73;10.40;;;;;;;1.98;96.01;98335.88;5107903;28;20199;-71
2022/01/28 07:00:41;;;;;;;13.33;11.17;;;;;;;1.99;95.77;98337.59;5121889;28;20206;-70
2022/01/28 07:03:09;;;;;;;12.93;10.70;;;;;;;1.87;96.69;98348.44;5121200;28;20204;-70
2022/01/28 07:05:36;;;;;;;12.53;10.13;;;;;;;1.99;97.17;98348.03;5104753;28;20227;-70
2022/01/28 07:08:04;;;;;;;12.37;9.73;;;;;;;2.03;96.88;98350.53;5090970;28;20218;-68
2022/01/28 07:10:31;;;;;;;11.13;9.47;;;;;;;2.09;96.58;98355.59;5099482;28;20231;-70
2022/01/28 07:12:58;;;;;;;11.10;9.17;;;;;;;2.18;96.55;98357.88;5099295;28;20201;-70
2022/01/28 07:15:27;;;;;;;11.87;9.73;;;;;;;2.27;96.35;98349.72;5079989;28;20213;-70
2022/01/28 07:17:54;;;;;;;10.53;8.83;;;;;;;2.34;96.51;98349.47;5080626;28;20229;-71
2022/01/28 07:20:20;;;;;;;11.80;9.23;;;;;;;2.41;96.15;98350.13;5086705;28;20203;-70
2022/01/28 07:22:47;;;;;;;11.83;9.60;;;;;;;2.44;96.22;98363.94;5078826;28;20243;-72
2022/01/28 07:25:13;;;;;;;11.20;9.27;;;;;;;2.36;96.04;98363.34;5077913;28;20649;-70
2022/01/28 07:27:40;;;;;;;13.10;10.33;;;;;;;2.38;96.05;98378.94;5091402;28;20619;-70
2022/01/28 07:30:08;;;;;;;12.77;10.30;;;;;;;2.42;96.40;98364.91;5098344;28;20220;-70
2022/01/28 07:32:36;;;;;;;13.93;10.80;;;;;;;2.38;95.51;98356.31;5098859;28;20516;-70
2022/01/28 07:35:04;;;;;;;11.97;10.20;;;;;;;2.45;96.13;98362.19;5097599;28;20296;-71
2022/01/28 07:37:31;;;;;;;14.10;10.60;;;;;;;2.55;96.13;98358.34;5098145;28;20515;-71
2022/01/28 07:39:57;;;;;;;12.90;9.83;;;;;;;2.59;95.89;98365.19;5098751;28;20215;-72
2022/01/28 07:42:25;;;;;;;10.00;8.87;;;;;;;2.62;95.69;98372.94;5098360;28;20224;-71
2022/01/28 07:44:51;;;;;;;11.50;9.57;;;;;;;2.61;94.67;98384.28;5098270;28;20209;-70
2022/01/28 07:47:19;;;;;;;12.23;9.77;;;;;;;2.65;94.61;98391.09;5098917;28;20212;-71
2022/01/28 07:49:47;;;;;;;12.00;10.47;;;;;;;2.67;93.59;98399.72;5084339;28;20239;-71
2022/01/28 07:52:13;;;;;;;11.53;10.33;;;;;;;2.60;94.04;98387.78;5094321;28;20267;-70
2022/01/28 07:54:46;;;;;;;11.50;9.50;;;;;;;2.62;93.61;98399.06;5098483;28;20209;-68
2022/01/28 07:57:13;;;;;;;11.63;9.73;;;;;;;2.63;94.03;98403.34;5102142;28;20533;-71
2022/01/28 07:59:39;;;;;;;11.83;9.27;;;;;;;2.67;93.56;98411.94;5099527;28;20228;-70
2022/01/28 08:02:06;;;;;;;11.10;9.47;;;;;;;2.64;94.39;98406.81;5104015;28;20220;-69
2022/01/28 08:04:33;;;;;;;12.97;10.57;;;;;;;2.71;94.40;98392.66;5108328;28;20217;-68
2022/01/28 08:07:00;;;;;;;13.07;10.47;;;;;;;2.69;94.06;98397.94;5112965;28;20209;-70
2022/01/28 08:09:27;;;;;;;16.03;11.17;;;;;;;2.70;93.98;98396.16;5103326;28;20228;-70
2022/01/28 08:11:53;;;;;;;14.03;10.43;;;;;;;2.76;94.62;98402.06;5099245;28;20555;-70
2022/01/28 08:14:20;;;;;;;13.40;10.53;;;;;;;2.85;94.24;98399.13;5097439;28;20208;-70
2022/01/28 08:16:46;;;;;;;11.67;10.13;;;;;;;2.90;93.95;98407.66;5097743;28;20208;-70
2022/01/28 08:19:12;;;;;;;12.63;10.20;;;;;;;2.91;93.58;98413.72;5094576;28;20205;-71
2022/01/28 08:21:39;;;;;;;11.83;10.30;;;;;;;2.94;93.25;98417.06;5095723;28;20297;-71
2022/01/28 08:24:07;;;;;;;12.17;10.73;;;;;;;2.98;93.68;98423.03;5097210;28;20519;-71
2022/01/28 08:26:33;;;;;;;13.63;11.33;;;;;;;3.01;93.91;98421.19;5092145;28;20209;-70
2022/01/28 08:29:00;;;;;;;12.60;11.17;;;;;;;2.87;94.36;98425.19;5077301;28;20217;-70
2022/01/28 08:31:26;;;;;;;11.50;9.80;;;;;;;2.81;94.20;98434.09;5077072;28;20222;-70
2022/01/28 08:33:53;;;;;;;11.80;9.80;;;;;;;2.89;93.77;98437.28;5076880;28;20225;-70
2022/01/28 08:36:20;;;;;;;12.23;10.40;;;;;;;2.83;94.67;98431.44;5077253;28;20313;-71
2022/01/28 08:38:48;;;;;;;11.87;10.43;;;;;;;2.82;94.10;98429.72;5077057;28;20208;-70
2022/01/28 08:41:16;;;;;;;11.67;9.63;;;;;;;2.93;94.16;98422.38;5088939;28;20277;-69
2022/01/28 08:43:43;;;;;;;11.37;8.60;;;;;;;2.99;93.61;98423.00;5097299;28;20207;-69
2022/01/28 08:46:10;;;;;;;10.70;9.43;;;;;;;2.92;93.30;98420.66;5091063;28;20222;-70
2022/01/28 08:48:36;;;;;;;10.30;8.93;;;;;;;2.84;94.53;98422.66;5077131;28;20256;-71
2022/01/28 08:51:03;;;;;;;11.43;9.07;;;;;;;2.98;93.49;98423.91;5076524;28;20249;-71
2022/01/28 08:53:29;;;;;;;10.93;9.83;;;;;;;3.05;92.63;98431.56;5076989;28;20641;-70
2022/01/28 08:55:56;;;;;;;14.97;13.13;;;;;;;3.16;91.74;98429.38;5099134;28;20570;-70
2022/01/28 08:58:24;;;;;;;16.40;13.03;;;;;;;3.05;92.74;98419.31;5097462;28;20563;-69
2022/01/28 09:00:51;;;;;;;16.03;13.57;;;;;;;3.18;95.06;98427.59;5090394;28;20213;-70
2022/01/28 09:03:19;;;;;;;14.87;12.93;;;;;;;3.18;94.49;98417.13;5118902;28;20240;-70
2022/01/28 09:05:47;;;;;;;16.83;12.57;;;;;;;3.24;93.34;98414.28;5118713;28;20212;-70
2022/01/28 09:08:14;;;;;;;13.90;11.63;;;;;;;3.33;93.25;98427.06;5112657;28;20190;-69
2022/01/28 09:10:44;;;;;;;13.13;10.93;;;;;;;3.51;93.09;98426.34;5097339;28;20209;-70
2022/01/28 09:13:22;;;;;;;15.57;10.63;;;;;;;3.70;91.52;98427.41;5096758;28;20210;-70
2022/01/28 09:15:50;;;;;;;12.40;10.40;;;;;;;4.33;87.00;98428.44;5096769;28;20197;-69
2022/01/28 09:18:18;;;;;;;12.60;10.20;;;;;;;5.30;83.44;98419.09;5096601;28;20224;-70
2022/01/28 09:20:44;;;;;;;12.87;10.10;;;;;;;5.97;81.10;98428.28;5096533;28;20206;-70
2022/01/28 09:23:11;;;;;;;10.93;9.73;;;;;;;6.64;77.81;98435.56;5096604;28;20236;-70
2022/01/28 09:25:38;;;;;;;10.80;8.90;;;;;;;6.98;72.01;98432.94;5104837;28;20513;-71
2022/01/28 09:28:04;;;;;;;11.33;8.73;;;;;;;6.81;73.40;98439.97;5099380;28;20221;-70
2022/01/28 09:30:31;;;;;;;9.57;8.67;;;;;;;6.56;77.68;98448.22;5096096;28;20213;-71
2022/01/28 09:32:59;;;;;;;10.17;8.77;;;;;;;6.51;78.33;98455.50;5078792;28;20202;-70
2022/01/28 09:35:26;;;;;;;9.97;8.17;;;;;;;5.92;80.27;98448.63;5076296;28;20218;-70
2022/01/28 09:37:53;;;;;;;8.97;8.03;;;;;;;6.21;80.73;98443.78;5093969;28;20225;-71
2022/01/28 09:40:20;;;;;;;9.40;8.50;;;;;;;6.96;78.05;98441.84;5096597;28;20198;-69
2022/01/28 09:42:48;;;;;;;12.53;8.57;;;;;;;7.09;77.63;98455.22;5096270;28;20237;-70
2022/01/28 09:45:16;;;;;;;10.00;8.53;;;;;;;7.38;76.86;98454.59;5095676;28;20208;-70
2022/01/28 09:47:42;;;;;;;10.27;8.67;;;;;;;8.02;73.46;98452.91;5077717;28;20221;-70
2022/01/28 09:50:10;;;;;;;10.40;8.60;;;;;;;8.33;72.42;98457.38;5076337;28;20246;-70
2022/01/28 09:52:37;;;;;;;8.97;7.93;;;;;;;8.53;71.16;98453.63;5094330;28;20198;-71
2022/01/28 09:55:05;;;;;;;8.47;7.63;;;;;;;8.77;68.41;98446.97;5101630;28;20202;-70
2022/01/28 09:57:32;;;;;;;8.73;7.93;;;;;;;9.28;65.25;98439.59;5095350;28;20648;-70
2022/01/28 09:59:58;;;;;;;13.93;7.30;;;;;;;9.03;65.39;98449.88;5095364;28;20660;-69
2022/01/28 10:02:47;;;;;;;7.90;7.10;;;;;;;9.76;63.53;98459.53;5095899;28;20229;-70
2022/01/28 10:05:23;;;;;;;16.80;9.00;;;;;;;10.25;61.88;98452.09;5096312;28;20549;-71
2022/01/28 10:08:07;;;;;;;15.07;9.43;;;;;;;10.65;58.88;98467.13;5096051;28;20621;-70
2022/01/28 10:10:45;;;;;;;10.77;9.53;;;;;;;10.80;59.02;98466.13;5096675;28;20209;-70
2022/01/28 10:13:17;;;;;;;16.57;10.07;;;;;;;10.21;59.80;98459.34;5109907;28;20198;-71
2022/01/28 10:16:06;;;;;;;11.27;9.23;;;;;;;9.57;62.04;98466.88;5112958;28;20217;-71
2022/01/28 10:18:51;;;;;;;13.63;9.40;;;;;;;9.25;63.09;98468.78;5097089;28;20213;-71
2022/01/28 10:21:30;;;;;;;10.63;9.53;;;;;;;8.76;63.44;98471.63;5096210;28;20197;-71
2022/01/28 10:24:15;;;;;;;10.67;9.30;;;;;;;8.37;66.26;98469.44;5096015;28;20201;-70
2022/01/28 10:26:44;;;;;;;11.50;10.33;;;;;;;7.89;68.25;98467.69;5095827;28;20533;-71
2022/01/28 10:29:13;;;;;;;16.50;10.57;;;;;;;7.85;69.71;98463.50;5095376;28;20216;-70
2022/01/28 10:31:59;;;;;;;12.67;10.97;;;;;;;7.99;72.10;98466.25;5095480;28;20239;-71
2022/01/28 10:34:29;;;;;;;11.97;10.33;;;;;;;8.63;68.50;98460.09;5095615;28;20221;-71
2022/01/28 10:37:17;;;;;;;13.47;10.37;;;;;;;8.53;69.06;98447.50;5095525;28;20206;-70
2022/01/28 10:39:46;;;;;;;12.20;11.00;;;;;;;8.44;67.58;98454.13;5096537;28;20202;-70
2022/01/28 10:42:17;;;;;;;13.83;10.53;;;;;;;8.17;69.12;98445.09;5095637;28;20308;-70
2022/01/28 10:44:55;;;;;;;14.67;11.80;;;;;;;7.92;69.46;98438.53;5095458;28;20293;-71
2022/01/28 10:47:31;;;;;;;11.83;10.63;;;;;;;7.93;70.76;98431.47;5094916;28;20645;-71
2022/01/28 10:49:57;;;;;;;19.33;12.73;;;;;;;8.05;69.44;98440.47;5095029;28;20244;-70
2022/01/28 10:52:33;;;;;;;14.10;11.23;;;;;;;8.29;70.10;98439.19;5095584;28;20213;-70
2022/01/28 10:55:00;;;;;;;13.77;11.43;;;;;;;9.17;67.42;98431.44;5100991;28;20651;-70
2022/01/28 10:57:29;;;;;;;12.33;11.13;;;;;;;9.80;63.53;98424.91;5101870;28;20556;-70
2022/01/28 10:59:56;;;;;;;13.37;11.77;;;;;;;10.61;63.20;98431.22;5095874;28;20210;-74
2022/01/28 11:02:24;;;;;;;12.32;11.10;;;;;;;10.85;58.82;98423.47;5091405;28;20233;-71
2022/01/28 11:04:52;;;;;;;14.23;11.43;;;;;;;10.33;61.60;98433.94;5090989;28;20625;-71
2022/01/28 11:07:19;;;;;;;11.70;10.50;;;;;;;9.80;64.15;98429.34;5084743;28;20221;-70
2022/01/28 11:09:48;;;;;;;11.38;10.18;;;;;;;9.35;65.84;98423.25;5077914;28;20210;-70
2022/01/28 11:12:15;;;;;;;9.73;8.90;;;;;;;9.64;65.01;98418.84;5092259;28;20201;-75
2022/01/28 11:14:42;;;;;;;10.17;9.03;;;;;;;9.07;64.17;98417.09;5100737;28;20238;-76
2022/01/28 11:17:11;;;;;;;8.90;8.10;;;;;;;9.16;64.23;98411.25;5103847;28;20251;-72
2022/01/28 11:19:39;;;;;;;9.50;8.60;;;;;;;9.41;62.83;98409.72;5118915;28;20199;-75
2022/01/28 11:22:25;;;;;;;9.33;8.43;;;;;;;9.77;61.81;98409.25;5119655;28;20311;-72
2022/01/28 11:25:10;;;;;;;9.80;8.30;;;;;;;10.10;62.42;98408.06;5099491;28;20690;-77
2022/01/28 11:27:40;;;;;;;8.60;7.70;;;;;;;10.89;60.06;98407.28;5085869;28;20234;-72
2022/01/28 11:30:18;;;;;;;9.27;8.37;;;;;;;10.94;57.18;98409.63;5086008;28;20206;-74
2022/01/28 11:33:01;;;;;;;9.77;7.97;;;;;;;10.47;60.06;98415.38;5115269;28;20181;-74
2022/01/28 11:35:30;;;;;;;7.43;6.73;;;;;;;10.84;58.13;98396.13;5120357;28;20259;-74
2022/01/28 11:38:03;;;;;;;8.60;6.90;;;;;;;10.88;56.55;98397.63;5120405;28;20181;-74
2022/01/28 11:40:42;;;;;;;8.73;7.83;;;;;;;10.76;60.83;98393.19;5119357;28;20245;-75
2022/01/28 11:43:19;;;;;;;9.40;8.37;;;;;;;10.47;62.66;98383.66;5109272;28;20286;-70
2022/01/28 11:45:45;;;;;;;12.63;8.73;;;;;;;10.09;62.75;98378.16;5099601;28;20201;-73
2022/01/28 11:48:12;;;;;;;8.30;7.50;;;;;;;10.38;60.53;98379.78;5099086;28;20209;-73
2022/01/28 11:50:38;;;;;;;9.17;8.07;;;;;;;9.98;60.98;98380.63;5096156;28;20246;-71
2022/01/28 11:53:21;;;;;;;10.33;9.33;;;;;;;9.60;61.02;98380.38;5098266;28;20209;-73
2022/01/28 11:56:01;;;;;;;9.23;8.30;;;;;;;9.46;64.15;98370.66;5103535;28;20543;-72
2022/01/28 11:58:52;;;;;;;8.93;7.97;;;;;;;9.29;64.48;98372.63;5097828;28;20205;-72
2022/01/28 12:01:23;;;;;;;9.00;8.10;;;;;;;9.48;63.33;98371.44;5097677;28;20201;-77
2022/01/28 12:03:49;;;;;;;9.33;8.37;;;;;;;9.33;64.06;98374.13;5097927;28;20225;-72
2022/01/28 12:06:17;;;;;;;8.70;7.80;;;;;;;9.23;63.99;98373.00;5097977;28;20230;-75
2022/01/28 12:08:44;;;;;;;11.00;8.63;;;;;;;9.52;62.62;98366.81;5079905;28;20245;-70
2022/01/28 12:11:13;;;;;;;9.40;8.00;;;;;;;9.53;61.10;98372.94;5080362;28;20233;-70
2022/01/28 12:13:54;;;;;;;10.70;9.70;;;;;;;9.36;63.32;98371.31;5100558;28;20297;-71
2022/01/28 12:16:27;;;;;;;13.27;11.80;;;;;;;9.25;66.83;98368.47;5093415;28;20213;-70
2022/01/28 12:18:55;;;;;;;14.33;11.17;;;;;;;9.41;65.83;98363.97;5090684;28;20206;-69
2022/01/28 12:21:24;;;;;;;12.37;11.07;;;;;;;9.32;65.18;98365.38;5104572;28;20210;-67
2022/01/28 12:23:52;;;;;;;13.87;11.53;;;;;;;9.31;67.79;98362.84;5099374;28;20226;-70
2022/01/28 12:26:20;;;;;;;11.90;10.70;;;;;;;9.59;65.05;98351.41;5109096;28;20198;-69